Terminal Aerodrome Forecast
Issued by NWS

Home | Current Version | Previous Version | Text Only | Print | Product List | Glossary On
Versions: 1 2 3 4 5 6 7 8 9 10 11 12 13
000
FTUS42 TJSJ 300500 RRA
TAFJBQ
TAF
TJBQ 300542Z 3006/3106 06006KT P6SM SCT020
     FM301400 06012KT P6SM SCT030
     FM302300 08003KT P6SM SCT030
      AMD NOT SKED TIL 301100=

USA.gov is the U.S. government's official web portal to all federal, state and local government web resources and services.